Data for 02/22/2005

Time Sea-Level Adjusted Pressure Absolute Pressure Temperature Relative Humidity Dew Point   
(mb) (inHg) (mb) (inHg) (C) (F) (%) (C) (F)
00:05 1019 30.09 848 25.04 -3 26.7 62 -9.2 15.5
00:10 1019 30.09 848 25.04 -3.1 26.5 64 -9 15.7
00:15 1019 30.09 849 25.07 -3.1 26.3 63 -9.3 15.3
00:20 1019 30.09 849 25.07 -3.1 26.4 63 -9.3 15.3
00:25 1019 30.09 849 25.07 -3.2 26.2 63 -9.3 15.3
00:30 1019 30.09 849 25.07 -3.3 26.1 63 -9.4 15.2
00:35 1019 30.09 849 25.07 -3.3 26 62 -9.5 14.8
00:40 1019 30.09 849 25.07 -3.3 26.1 63 -9.4 15.1
00:45 1019 30.09 849 25.07 -3.4 25.9 63 -9.5 14.9
00:50 1019 30.09 849 25.07 -3.4 25.9 63 -9.4 15
00:55 1019 30.09 849 25.07 -3.5 25.7 63 -9.5 14.9
01:00 1019 30.09 849 25.07 -3.6 25.5 63 -9.6 14.7
01:05 1019 30.09 849 25.07 -3.6 25.5 62 -9.9 14.2
01:10 1019 30.09 849 25.07 -3.6 25.6 61 -10.1 13.9
01:15 1019 30.09 849 25.07 -3.6 25.4 62 -10 14.1
01:20 1019 30.09 849 25.07 -3.7 25.3 62 -9.9 14.2
01:25 1019 30.09 849 25.07 -3.8 25.2 62 -9.9 14.1
01:30 1019 30.09 849 25.07 -4 24.9 64 -9.8 14.4
01:35 1019 30.09 849 25.07 -4.1 24.6 65 -9.7 14.5
01:40 1020 30.12 849 25.07 -4.2 24.4 65 -9.9 14.1
01:45 1020 30.12 849 25.07 -4.3 24.3 64 -10.1 13.8
01:50 1019 30.09 849 25.07 -4.2 24.4 63 -10.2 13.7
01:55 1019 30.09 849 25.07 -4.2 24.4 64 -10 13.9
02:00 1019 30.09 849 25.07 -4.3 24.2 64 -10.1 13.9
02:05 1019 30.09 849 25.07 -4.4 24 66 -9.9 14.1
02:10 1019 30.09 849 25.07 -4.5 23.8 65 -10.2 13.7
02:15 1019 30.09 849 25.07 -4.5 24 65 -10.1 13.8
02:20 1019 30.09 849 25.07 -4.4 24 65 -10.1 13.9
02:25 1019 30.09 849 25.07 -4.4 24 66 -10 14.1
02:30 1020 30.12 849 25.07 -4.5 24 66 -10 14
02:35 1020 30.12 849 25.07 -4.5 23.9 66 -9.9 14.1
02:40 1020 30.12 849 25.07 -4.7 23.6 66 -10.1 13.9
02:45 1019 30.09 849 25.07 -4.6 23.7 66 -10.1 13.8
02:50 1019 30.09 849 25.07 -4.7 23.6 66 -10 13.9
02:55 1019 30.09 849 25.07 -4.7 23.5 67 -10 14
03:00 1019 30.09 849 25.07 -4.9 23.2 67 -10.1 13.8
03:05 1019 30.09 849 25.07 -4.9 23.1 68 -10 14.1
03:10 1019 30.09 849 25.07 -5 23.1 68 -9.9 14.1
03:15 1019 30.09 849 25.07 -5 23 68 -10 14
03:20 1019 30.09 848 25.04 -5 22.9 69 -9.8 14.3
03:25 1019 30.09 848 25.04 -5.2 22.7 70 -9.8 14.4
03:30 1019 30.09 848 25.04 -5.2 22.6 70 -9.9 14.2
03:35 1019 30.09 848 25.04 -5.2 22.6 70 -9.9 14.2
03:40 1019 30.09 848 25.04 -5.2 22.6 70 -10 14.1
03:45 1019 30.09 848 25.04 -5.2 22.6 69 -10 13.9
03:50 1019 30.09 848 25.04 -5.2 22.6 70 -10 14.1
03:55 1019 30.09 848 25.04 -5.3 22.5 71 -9.7 14.5
04:00 1019 30.09 849 25.07 -5.5 22.1 72 -9.8 14.3
04:05 1019 30.09 849 25.07 -5.5 22 72 -9.9 14.2
04:10 1019 30.09 849 25.07 -5.5 22 72 -9.9 14.2
04:15 1019 30.09 849 25.07 -5.6 21.9 72 -9.9 14.2
04:20 1019 30.09 849 25.07 -5.6 22 72 -9.8 14.3
04:25 1020 30.12 849 25.07 -5.5 22.1 72 -9.8 14.4
04:30 1020 30.12 849 25.07 -5.6 21.9 75 -9.3 15.2
04:35 1020 30.12 849 25.07 -5.6 21.9 75 -9.3 15.3
04:40 1020 30.12 849 25.07 -5.4 22.3 75 -9.2 15.4
04:45 1020 30.12 849 25.07 -5.2 22.6 76 -8.8 16.1
04:50 1020 30.12 849 25.07 -5.2 22.6 76 -8.7 16.3
04:55 1020 30.12 849 25.07 -5.1 22.8 77 -8.6 16.5
05:00 1020 30.12 849 25.07 -5.1 22.8 77 -8.6 16.6
05:05 1020 30.12 849 25.07 -5.4 22.3 78 -8.6 16.5
05:10 1020 30.12 849 25.07 -5.7 21.8 79 -8.8 16.2
05:15 1020 30.12 849 25.07 -5.8 21.5 79 -8.9 15.9
05:20 1020 30.12 849 25.07 -5.9 21.4 79 -9 15.8
05:25 1020 30.12 849 25.07 -5.9 21.3 79 -9.1 15.7
05:30 1020 30.12 849 25.07 -5.8 21.5 79 -8.9 16
05:35 1020 30.12 849 25.07 -5.7 21.7 78 -8.9 16
05:40 1020 30.12 849 25.07 -5.6 21.9 78 -8.9 16
05:45 1020 30.12 849 25.07 -5.6 22 80 -8.6 16.6
05:50 1020 30.12 849 25.07 -5.9 21.4 82 -8.5 16.7
05:55 1020 30.12 849 25.07 -6.2 20.8 83 -8.6 16.4
06:00 1020 30.12 849 25.07 -6.4 20.5 83 -8.8 16.1
06:05 1020 30.12 849 25.07 -6.5 20.4 83 -8.9 16
06:10 1020 30.12 849 25.07 -6.4 20.5 82 -8.9 16
06:15 1020 30.12 849 25.07 -6.3 20.6 81 -9 15.8
06:20 1020 30.12 849 25.07 -6.3 20.6 82 -8.9 15.9
06:25 1020 30.12 849 25.07 -6.3 20.7 83 -8.8 16.2
06:30 1020 30.12 849 25.07 -6.3 20.7 83 -8.7 16.4
06:35 1020 30.12 849 25.07 -6.5 20.2 85 -8.7 16.4
06:40 1020 30.12 849 25.07 -6.7 19.9 85 -8.9 16
06:45 1020 30.12 849 25.07 -6.8 19.8 83 -9.3 15.3
06:50 1020 30.12 849 25.07 -6.4 20.5 81 -9.2 15.5
06:55 1020 30.12 849 25.07 -6.5 20.4 82 -9.1 15.6
07:00 1020 30.12 849 25.07 -6.6 20.2 81 -9.3 15.2
07:05 1020 30.12 849 25.07 -6.7 20 80 -9.7 14.6
07:10 1020 30.12 850 25.1 -6.7 20 79 -9.7 14.6
07:15 1020 30.12 850 25.1 -6.6 20.1 79 -9.6 14.6
07:20 1020 30.12 850 25.1 -6.6 20.2 80 -9.5 14.9
07:25 1020 30.12 850 25.1 -6.5 20.3 80 -9.5 14.9
07:30 1020 30.12 850 25.1 -6.5 20.3 80 -9.4 15.1
07:35 1020 30.12 850 25.1 -6.7 20 79 -9.7 14.6
07:40 1020 30.12 850 25.1 -6.5 20.3 79 -9.6 14.8
07:45 1020 30.12 850 25.1 -6.1 20.9 78 -9.4 15
07:50 1020 30.12 850 25.1 -5.9 21.3 78 -9.1 15.5
07:55 1020 30.12 850 25.1 -5.9 21.3 79 -9.1 15.6
08:00 1021 30.15 850 25.1 -5.7 21.7 78 -8.9 16
08:05 1021 30.15 850 25.1 -5.5 22.2 76 -9 15.7
08:10 1021 30.15 850 25.1 -5 23 75 -8.8 16.1
08:15 1021 30.15 850 25.1 -4.9 23.2 75 -8.7 16.3
08:20 1021 30.15 850 25.1 -4.6 23.6 73 -8.8 16.1
08:25 1021 30.15 850 25.1 -4.4 24.2 72 -8.6 16.4
08:30 1021 30.15 850 25.1 -4.1 24.5 71 -8.7 16.3
08:35 1021 30.15 850 25.1 -4.4 24.1 73 -8.5 16.7
08:40 1021 30.15 850 25.1 -4.2 24.5 71 -8.7 16.3
08:45 1021 30.15 850 25.1 -4 24.9 70 -8.6 16.5
08:50 1021 30.15 850 25.1 -3.8 25.3 70 -8.4 16.9
08:55 1021 30.15 850 25.1 -3 26.6 66 -8.4 16.9
09:00 1021 30.15 850 25.1 -2.3 27.9 63 -8.3 17
09:05 1021 30.15 850 25.1 -2.4 27.7 63 -8.4 16.8
09:10 1021 30.15 850 25.1 -2.3 27.8 64 -8.2 17.3
09:15 1021 30.15 850 25.1 -1.4 29.4 60 -8.3 17.1
09:20 1021 30.15 850 25.1 -1.7 29 63 -7.8 17.9
09:25 1021 30.15 850 25.1 -1 30.2 59 -8 17.6
09:30 1021 30.15 850 25.1 -0.9 30.4 58 -8.1 17.4
09:35 1021 30.15 850 25.1 -0.9 30.4 58 -8.1 17.5
09:40 1021 30.15 850 25.1 -0.8 30.6 59 -7.9 17.8
09:45 1021 30.15 850 25.1 0.6 33.1 54 -7.8 18
09:50 1021 30.15 850 25.1 1.3 34.4 54 -7 19.3
09:55 1021 30.15 850 25.1 1.4 34.6 51 -7.6 18.4
10:00 1021 30.15 850 25.1 1.6 35 52 -7.2 19
10:05 1021 30.15 850 25.1 1.6 34.9 51 -7.5 18.4
10:10 1021 30.15 850 25.1 1.9 35.4 50 -7.4 18.7
10:15 1021 30.15 850 25.1 1.9 35.4 51 -7.1 19.3
10:20 1021 30.15 850 25.1 2.1 35.8 50 -7.4 18.7
10:25 1021 30.15 850 25.1 2 35.5 52 -6.9 19.5
10:30 1021 30.15 850 25.1 1.5 34.7 51 -7.5 18.5
10:35 1021 30.15 850 25.1 1.5 34.7 54 -6.9 19.6
10:40 1021 30.15 850 25.1 1.8 35.3 53 -6.9 19.6
10:45 1021 30.15 850 25.1 2 35.7 52 -6.7 19.9
10:50 1021 30.15 850 25.1 2.1 35.7 52 -6.7 19.9
10:55 1021 30.15 850 25.1 2.7 36.9 51 -6.4 20.4
11:00 1021 30.15 850 25.1 2.9 37.3 50 -6.6 20.1
11:05 1021 30.15 850 25.1 3 37.4 49 -6.7 19.9
11:10 1021 30.15 850 25.1 3.2 37.8 47 -7 19.4
11:15 1021 30.15 850 25.1 3.2 37.7 48 -6.8 19.8
11:20 1021 30.15 850 25.1 3.1 37.5 49 -6.5 20.3
11:25 1021 30.15 850 25.1 3.1 37.6 48 -6.7 19.9
11:30 1021 30.15 850 25.1 3.2 37.8 47 -7 19.5
11:35 1021 30.15 850 25.1 3.3 37.9 47 -6.9 19.7
11:40 1021 30.15 850 25.1 3.4 38.1 48 -6.7 19.9
11:45 1021 30.15 850 25.1 3.1 37.5 47 -7.1 19.2
11:50 1021 30.15 850 25.1 3.4 38.1 45 -7.3 18.8
11:55 1021 30.15 850 25.1 3.2 37.7 49 -6.6 20.1
12:00 1021 30.15 850 25.1 3 37.4 48 -7 19.3
12:05 1021 30.15 850 25.1 3.4 38.1 47 -6.7 19.9
12:10 1021 30.15 850 25.1 3.4 38.2 47 -6.8 19.7
12:15 1021 30.15 850 25.1 3.6 38.4 47 -6.8 19.8
12:20 1021 30.15 850 25.1 3.9 39 45 -7 19.4
12:25 1021 30.15 850 25.1 3.9 39 46 -6.6 20.1
12:30 1021 30.15 850 25.1 4.6 40.3 43 -6.8 19.7
12:35 1021 30.15 850 25.1 4.2 39.5 45 -6.7 19.9
12:40 1021 30.15 850 25.1 4.2 39.6 46 -6.3 20.6
12:45 1021 30.15 850 25.1 4.8 40.6 46 -6 21.3
12:50 1021 30.15 850 25.1 4.5 40.1 45 -6.5 20.3
12:55 1021 30.15 850 25.1 4.6 40.2 44 -6.5 20.2
13:00 1020 30.12 850 25.1 4.2 39.5 45 -6.6 20.1
13:05 1020 30.12 850 25.1 4.8 40.6 42 -7.1 19.1
13:10 1020 30.12 849 25.07 5.3 41.5 41 -6.9 19.6
13:15 1020 30.12 849 25.07 5.7 42.3 39 -7.3 18.8
13:20 1020 30.12 849 25.07 5.9 42.5 37 -7.8 18
13:25 1020 30.12 849 25.07 6 42.7 37 -7.5 18.4
13:30 1020 30.12 849 25.07 6.1 43 35 -8.1 17.4
13:35 1020 30.12 849 25.07 5.9 42.6 37 -7.7 18.2
13:40 1020 30.12 849 25.07 5.8 42.4 38 -7.6 18.3
13:45 1020 30.12 849 25.07 6.1 43 35 -8.1 17.3
13:50 1020 30.12 849 25.07 6.3 43.4 35 -8 17.6
13:55 1020 30.12 849 25.07 6.1 42.9 36 -8 17.6
14:00 1020 30.12 849 25.07 5.9 42.6 36 -8.2 17.2
14:05 1020 30.12 849 25.07 6.2 43.2 36 -7.7 18.1
14:10 1020 30.12 849 25.07 6.3 43.3 34 -8.4 16.8
14:15 1020 30.12 849 25.07 6.6 43.8 32 -8.9 16
14:20 1020 30.12 849 25.07 6.7 44.1 33 -8.4 16.8
14:25 1020 30.12 849 25.07 7 44.6 32 -8.7 16.3
14:30 1020 30.12 849 25.07 7 44.5 31 -9 15.9
14:35 1020 30.12 849 25.07 6.4 43.4 33 -8.7 16.4
14:40 1020 30.12 849 25.07 6.6 43.9 33 -8.6 16.4
14:45 1020 30.12 849 25.07 5.9 42.6 34 -8.6 16.5
14:50 1020 30.12 849 25.07 5 41.1 33 -9.9 14.2
14:55 1020 30.12 849 25.07 5.6 42 35 -8.9 16
15:00 1020 30.12 849 25.07 5.1 41.2 34 -9.5 14.9
15:05 1020 30.12 849 25.07 6.2 43.2 32 -9.3 15.2
15:10 1020 30.12 849 25.07 6.5 43.8 33 -8.7 16.3
15:15 1020 30.12 849 25.07 6.4 43.6 35 -8.1 17.4
15:20 1020 30.12 849 25.07 5.4 41.7 38 -7.9 17.7
15:25 1020 30.12 849 25.07 5.1 41.3 38 -7.9 17.7
15:30 1020 30.12 849 25.07 5.5 41.8 37 -8.1 17.4
15:35 1020 30.12 849 25.07 5.2 41.3 37 -8.4 16.9
15:40 1020 30.12 849 25.07 6.1 42.9 34 -8.7 16.4
15:45 1020 30.12 850 25.1 6.4 43.5 34 -8.2 17.2
15:50 1020 30.12 850 25.1 6.8 44.2 31 -9 15.8
15:55 1020 30.12 850 25.1 7.2 45 31 -8.9 16
16:00 1020 30.12 850 25.1 7.7 45.9 30 -9 15.9
16:05 1020 30.12 850 25.1 7.6 45.8 30 -8.8 16.1
16:10 1020 30.12 850 25.1 7.5 45.6 30 -9 15.8
16:15 1020 30.12 850 25.1 7.4 45.3 31 -8.5 16.7
16:20 1020 30.12 850 25.1 7.2 44.9 32 -8.5 16.6
16:25 1020 30.12 850 25.1 7.2 44.9 32 -8.5 16.7
16:30 1020 30.12 850 25.1 6.7 44.1 33 -8.5 16.7
16:35 1020 30.12 850 25.1 6.3 43.4 33 -8.6 16.5
16:40 1020 30.12 850 25.1 6 42.8 35 -8.3 17.1
16:45 1020 30.12 850 25.1 5.7 42.2 38 -7.7 18.2
16:50 1020 30.12 849 25.07 5.6 42.1 38 -7.7 18.2
16:55 1020 30.12 849 25.07 5.2 41.3 37 -8.2 17.3
17:00 1020 30.12 849 25.07 5.4 41.7 36 -8.4 16.9
17:05 1020 30.12 849 25.07 5.8 42.4 37 -8 17.7
17:10 1020 30.12 849 25.07 5.8 42.4 36 -8 17.5
17:15 1020 30.12 849 25.07 5.6 42.2 38 -7.7 18.1
17:20 1020 30.12 849 25.07 5.5 41.9 38 -7.9 17.8
17:25 1020 30.12 849 25.07 5.7 42.2 37 -7.8 18
17:30 1020 30.12 849 25.07 5.3 41.6 38 -8 17.5
17:35 1020 30.12 849 25.07 5 40.9 36 -8.8 16.1
17:40 1020 30.12 849 25.07 5.1 41.2 35 -9.1 15.6
17:45 1020 30.12 850 25.1 4.9 40.8 37 -8.7 16.4
17:50 1020 30.12 850 25.1 4.5 40 38 -8.6 16.4
17:55 1021 30.15 850 25.1 4 39.2 40 -8.3 17
18:00 1021 30.15 850 25.1 3.5 38.3 41 -8.4 16.9
18:05 1021 30.15 850 25.1 3.1 37.5 41 -8.8 16.2
18:10 1021 30.15 850 25.1 2.9 37.2 40 -9.3 15.2
18:15 1020 30.12 850 25.1 2.8 37.1 42 -8.9 15.9
18:20 1020 30.12 850 25.1 2.8 37 40 -9.5 14.9
18:25 1020 30.12 850 25.1 2.8 37 40 -9.6 14.6
18:30 1020 30.12 850 25.1 2.7 36.8 42 -9.1 15.6
18:35 1020 30.12 850 25.1 2.4 36.3 45 -8.4 16.9
18:40 1021 30.15 850 25.1 2.2 36 48 -7.7 18.1
18:45 1021 30.15 850 25.1 1.8 35.2 49 -7.8 17.9
18:50 1021 30.15 850 25.1 1.7 35 48 -8.1 17.5
18:55 1021 30.15 850 25.1 1.4 34.4 50 -8 17.7
19:00 1021 30.15 850 25.1 0.8 33.4 49 -8.9 16.1
19:05 1021 30.15 850 25.1 0.7 33.3 46 -9.7 14.6
19:10 1021 30.15 850 25.1 1 33.8 45 -9.6 14.7
19:15 1021 30.15 850 25.1 1.1 34 47 -9.1 15.7
19:20 1021 30.15 850 25.1 0.6 33.2 49 -8.8 16.1
19:25 1021 30.15 850 25.1 -0.2 31.7 54 -8.4 16.9
19:30 1021 30.15 850 25.1 -0.3 31.4 48 -10 14
19:35 1021 30.15 850 25.1 0.1 32.2 46 -10.1 13.8
19:40 1021 30.15 850 25.1 0 32 48 -9.7 14.5
19:45 1021 30.15 850 25.1 -0.1 31.8 47 -10.1 13.7
19:50 1021 30.15 850 25.1 -0.5 31.1 49 -9.9 14.2
19:55 1021 30.15 850 25.1 -0.5 31.1 51 -9.4 15.1
20:00 1021 30.15 850 25.1 -0.6 31 51 -9.5 14.8
20:05 1021 30.15 850 25.1 -0.6 30.9 49 -10 14
20:10 1021 30.15 850 25.1 -0.5 31 48 -10.2 13.7
20:15 1021 30.15 851 25.13 -0.7 30.8 49 -10.1 13.9
20:20 1021 30.15 851 25.13 -0.7 30.8 49 -10.1 13.9
20:25 1021 30.15 851 25.13 -0.6 31 48 -10.3 13.5
20:30 1021 30.15 851 25.13 -0.6 31 46 -10.8 12.6
20:35 1021 30.15 851 25.13 -0.6 30.9 47 -10.7 12.8
20:40 1021 30.15 851 25.13 -0.8 30.6 49 -10.3 13.5
20:45 1021 30.15 851 25.13 -1 30.2 50 -10.3 13.5
20:50 1021 30.15 851 25.13 -1 30.2 49 -10.4 13.2
20:55 1021 30.15 851 25.13 -1 30.2 49 -10.4 13.3
21:00 1022 30.18 851 25.13 -0.9 30.3 48 -10.5 13.1
21:05 1022 30.18 851 25.13 -0.8 30.6 47 -10.8 12.5
21:10 1022 30.18 851 25.13 -0.5 31.1 45 -11 12.2
21:15 1022 30.18 851 25.13 -0.5 31.2 46 -10.7 12.8
21:20 1022 30.18 851 25.13 -0.5 31.1 47 -10.6 12.9
21:25 1022 30.18 851 25.13 -0.7 30.7 50 -10 13.9
21:30 1022 30.18 851 25.13 -0.7 30.8 50 -10 14.1
21:35 1022 30.18 851 25.13 -0.6 30.9 49 -9.9 14.1
21:40 1022 30.18 851 25.13 -0.8 30.5 50 -10 14
21:45 1022 30.18 851 25.13 -1.1 30 50 -10.2 13.6
21:50 1022 30.18 851 25.13 -1.4 29.4 52 -10.2 13.7
21:55 1022 30.18 851 25.13 -1.5 29.2 51 -10.3 13.4
22:00 1022 30.18 851 25.13 -1.7 29 52 -10.2 13.6
22:05 1022 30.18 851 25.13 -1.9 28.6 53 -10.3 13.4
22:10 1022 30.18 851 25.13 -2 28.3 53 -10.5 13.2
22:15 1022 30.18 851 25.13 -1.8 28.8 51 -10.5 13
22:20 1022 30.18 851 25.13 -1.7 28.9 52 -10.3 13.5
22:25 1022 30.18 851 25.13 -1.9 28.7 53 -10.2 13.7
22:30 1022 30.18 851 25.13 -2.1 28.2 55 -10 14.1
22:35 1022 30.18 851 25.13 -2.3 27.9 54 -10.3 13.5
22:40 1022 30.18 851 25.13 -2.2 28 53 -10.4 13.2
22:45 1022 30.18 851 25.13 -2 28.4 52 -10.6 13
22:50 1022 30.18 851 25.13 -1.9 28.6 52 -10.5 13.1
22:55 1022 30.18 851 25.13 -1.8 28.7 51 -10.6 12.9
23:00 1022 30.18 851 25.13 -1.8 28.8 52 -10.5 13.1
23:05 1022 30.18 851 25.13 -2.1 28.2 55 -10.1 13.9
23:10 1022 30.18 851 25.13 -2.2 28 53 -10.5 13.1
23:15 1022 30.18 851 25.13 -2 28.4 52 -10.5 13.1
23:20 1022 30.18 851 25.13 -2 28.4 52 -10.6 13
23:25 1022 30.18 851 25.13 -2 28.4 53 -10.3 13.5
23:30 1022 30.18 851 25.13 -2.3 27.9 55 -10.2 13.7
23:35 1022 30.18 851 25.13 -2.5 27.4 56 -10.2 13.6
23:40 1022 30.18 851 25.13 -2.8 26.9 56 -10.4 13.3
23:45 1022 30.18 851 25.13 -2.9 26.8 57 -10.2 13.7
23:50 1022 30.18 851 25.13 -3.1 26.4 58 -10.3 13.4
23:55 1022 30.18 851 25.13 -3.1 26.5 57 -10.3 13.4
24:00 1022 30.18 851 25.13 -3.3 26.1 59 -10.2 13.6